createdAt,value
2022-10-17T00:01:17.716Z,57.74
2022-10-17T00:03:50.318Z,57.93
2022-10-17T00:06:18.034Z,57.63
2022-10-17T00:08:45.902Z,57.83
2022-10-17T00:11:22.317Z,58.10
2022-10-17T00:13:56.440Z,58.04
2022-10-17T00:16:34.179Z,58.11
2022-10-17T00:19:02.372Z,58.18
2022-10-17T00:21:32.212Z,58.19
2022-10-17T00:24:02.767Z,58.21
2022-10-17T00:26:33.384Z,58.27
2022-10-17T00:29:01.114Z,58.38
2022-10-17T00:31:33.861Z,58.27
2022-10-17T00:34:02.915Z,58.38
2022-10-17T00:36:30.938Z,58.39
2022-10-17T00:39:01.841Z,58.46
2022-10-17T00:41:32.534Z,58.48
2022-10-17T00:44:29.455Z,58.46
2022-10-17T00:47:05.125Z,58.71
2022-10-17T00:49:39.395Z,58.65
2022-10-17T00:52:20.567Z,58.72
2022-10-17T00:54:58.532Z,58.64
2022-10-17T00:57:31.852Z,58.73
2022-10-17T01:00:05.017Z,58.74
2022-10-17T01:02:32.708Z,58.76
2022-10-17T01:05:06.969Z,58.81
2022-10-17T01:07:40.883Z,58.83
2022-10-17T01:10:11.034Z,58.82
2022-10-17T01:12:44.846Z,59.00
2022-10-17T01:15:27.610Z,59.15
2022-10-17T01:18:27.192Z,58.96
2022-10-17T01:21:25.489Z,59.06
2022-10-17T01:24:14.588Z,59.14
2022-10-17T01:27:00.956Z,59.14
2022-10-17T01:29:44.123Z,59.13
2022-10-17T01:32:41.910Z,59.22
2022-10-17T01:35:14.363Z,59.34
2022-10-17T01:38:11.903Z,59.20
2022-10-17T01:40:49.384Z,59.34
2022-10-17T01:43:37.196Z,59.44
2022-10-17T01:46:20.334Z,59.36
2022-10-17T01:48:48.016Z,59.38
2022-10-17T01:51:25.279Z,59.54
2022-10-17T01:54:06.323Z,59.58
2022-10-17T01:56:38.918Z,59.49
2022-10-17T01:59:31.351Z,59.59
2022-10-17T02:02:01.430Z,59.57
2022-10-17T02:04:29.360Z,59.59
2022-10-17T02:07:15.209Z,59.59
2022-10-17T02:09:47.302Z,59.71
2022-10-17T02:12:40.865Z,59.79
2022-10-17T02:15:11.580Z,59.84
2022-10-17T02:18:14.835Z,59.90
2022-10-17T02:21:03.681Z,59.91
2022-10-17T02:24:09.606Z,59.85
2022-10-17T02:27:00.411Z,59.90
2022-10-17T02:29:53.631Z,59.93
2022-10-17T02:32:52.135Z,59.98
2022-10-17T02:35:28.272Z,60.01
2022-10-17T02:38:03.708Z,59.96
2022-10-17T02:40:34.273Z,60.03
2022-10-17T02:43:01.986Z,59.90
2022-10-17T02:45:36.773Z,60.04
2022-10-17T02:48:38.824Z,60.06
2022-10-17T02:51:38.529Z,60.36
2022-10-17T02:54:31.726Z,60.29
2022-10-17T02:57:17.477Z,60.41
2022-10-17T02:59:51.150Z,60.37
2022-10-17T03:02:18.985Z,60.28
2022-10-17T03:04:51.888Z,60.51
2022-10-17T03:07:24.293Z,60.38
2022-10-17T03:09:51.969Z,60.50
2022-10-17T03:12:19.626Z,60.62
2022-10-17T03:14:47.283Z,60.47
2022-10-17T03:17:14.925Z,60.49
2022-10-17T03:19:42.663Z,60.56
2022-10-17T03:22:10.349Z,60.57
2022-10-17T03:24:38.069Z,60.54
2022-10-17T03:27:05.807Z,60.62
2022-10-17T03:29:33.707Z,60.64
2022-10-17T03:32:02.182Z,60.57
2022-10-17T03:34:29.934Z,60.64
2022-10-17T03:36:57.633Z,60.68
2022-10-17T03:39:26.646Z,60.87
2022-10-17T03:41:54.319Z,60.69
2022-10-17T03:44:22.063Z,60.87
2022-10-17T03:46:49.898Z,60.81
2022-10-17T03:49:17.745Z,60.89
2022-10-17T03:51:45.509Z,60.76
2022-10-17T03:54:13.239Z,60.89
2022-10-17T03:56:41.783Z,60.83
2022-10-17T03:59:14.526Z,60.95
2022-10-17T04:01:42.839Z,61.07
2022-10-17T04:04:10.970Z,61.02
2022-10-17T04:06:39.345Z,61.22
2022-10-17T04:09:07.939Z,61.14
2022-10-17T04:11:35.661Z,61.03
2022-10-17T04:14:03.534Z,61.00
2022-10-17T04:16:31.193Z,61.05
2022-10-17T04:19:00.557Z,61.10
2022-10-17T04:21:29.739Z,61.10
2022-10-17T04:24:00.600Z,61.26
2022-10-17T04:26:28.446Z,61.34
2022-10-17T04:28:56.592Z,61.30
2022-10-17T04:31:25.363Z,61.39
2022-10-17T04:33:53.277Z,61.26
2022-10-17T04:36:23.507Z,61.27
2022-10-17T04:38:51.363Z,61.27
2022-10-17T04:41:20.134Z,61.35
2022-10-17T04:43:50.972Z,61.50
2022-10-17T04:46:19.381Z,61.31
2022-10-17T04:48:47.155Z,61.51
2022-10-17T04:51:20.684Z,61.50
2022-10-17T04:53:51.530Z,61.50
2022-10-17T04:56:22.082Z,61.46
2022-10-17T04:58:49.997Z,61.56
2022-10-17T05:01:20.478Z,61.54
2022-10-17T05:03:49.159Z,61.66
2022-10-17T05:06:28.747Z,61.77
2022-10-17T05:08:58.499Z,61.88
2022-10-17T05:11:29.106Z,61.95
2022-10-17T05:14:00.078Z,61.97
2022-10-17T05:16:30.314Z,61.94
2022-10-17T05:18:59.785Z,61.94
2022-10-17T05:21:30.642Z,61.98
2022-10-17T05:23:59.792Z,62.05
2022-10-17T05:26:27.531Z,62.09
2022-10-17T05:28:55.279Z,62.14
2022-10-17T05:31:23.084Z,62.13
2022-10-17T05:33:50.718Z,62.19
2022-10-17T05:36:19.143Z,62.17
2022-10-17T05:38:53.104Z,62.17
2022-10-17T05:41:20.907Z,62.31
2022-10-17T05:43:50.710Z,62.31
2022-10-17T05:46:18.683Z,62.28
2022-10-17T05:48:48.281Z,62.28
2022-10-17T05:51:16.041Z,62.53
2022-10-17T05:53:43.780Z,62.44
2022-10-17T05:56:14.822Z,62.53
2022-10-17T05:58:50.617Z,62.46
2022-10-17T06:01:22.128Z,62.52
2022-10-17T06:03:49.839Z,62.58
2022-10-17T06:06:19.031Z,62.61
2022-10-17T06:08:47.104Z,62.64
2022-10-17T06:11:14.924Z,62.54
2022-10-17T06:13:42.768Z,62.56
2022-10-17T06:16:10.488Z,62.63
2022-10-17T06:18:38.173Z,62.69
2022-10-17T06:21:09.861Z,62.79
2022-10-17T06:23:38.384Z,62.77
2022-10-17T06:26:07.903Z,62.85
2022-10-17T06:28:36.606Z,62.84
2022-10-17T06:31:07.473Z,62.85
2022-10-17T06:33:36.306Z,62.95
2022-10-17T06:36:07.512Z,62.88
2022-10-17T06:38:36.188Z,62.84
2022-10-17T06:41:10.686Z,62.95
2022-10-17T06:43:40.853Z,62.94
2022-10-17T06:46:10.514Z,63.03
2022-10-17T06:48:38.384Z,63.09
2022-10-17T06:51:10.520Z,63.05
2022-10-17T06:53:40.900Z,62.99
2022-10-17T06:56:10.937Z,63.00
2022-10-17T06:58:41.687Z,63.00
2022-10-17T07:01:12.905Z,63.03
2022-10-17T07:03:41.689Z,62.93
2022-10-17T07:06:11.396Z,63.13
2022-10-17T07:08:44.860Z,63.09
2022-10-17T07:11:14.207Z,63.14
2022-10-17T07:13:43.370Z,63.12
2022-10-17T07:16:12.886Z,63.03
2022-10-17T07:18:40.777Z,63.04
2022-10-17T07:21:10.683Z,63.00
2022-10-17T07:23:41.422Z,63.02
2022-10-17T07:26:13.756Z,63.01
2022-10-17T07:28:44.996Z,63.01
2022-10-17T07:31:19.059Z,62.95
2022-10-17T07:33:48.703Z,62.98
2022-10-17T07:36:17.768Z,62.98
2022-10-17T07:38:45.475Z,62.93
2022-10-17T07:41:17.873Z,62.89
2022-10-17T07:43:49.066Z,62.87
2022-10-17T07:46:16.865Z,62.92
2022-10-17T07:48:44.547Z,62.96
2022-10-17T07:51:12.258Z,62.84
2022-10-17T07:53:42.757Z,62.84
2022-10-17T07:56:14.063Z,62.73
2022-10-17T07:58:44.816Z,62.67
2022-10-17T08:01:15.859Z,62.75
2022-10-17T08:03:51.056Z,62.55
2022-10-17T08:06:18.898Z,62.62
2022-10-17T08:08:46.616Z,62.60
2022-10-17T08:11:16.772Z,62.72
2022-10-17T08:13:44.534Z,62.64
2022-10-17T08:16:13.677Z,62.61
2022-10-17T08:18:44.130Z,62.66
2022-10-17T08:21:15.130Z,62.66
2022-10-17T08:23:44.425Z,62.64
2022-10-17T08:26:17.270Z,62.54
2022-10-17T08:28:45.922Z,62.51
2022-10-17T08:31:18.920Z,62.58
2022-10-17T08:33:49.428Z,62.66
2022-10-17T08:36:21.237Z,62.51
2022-10-17T08:38:52.591Z,62.47
2022-10-17T08:42:00.212Z,62.60
2022-10-17T08:44:43.539Z,62.44
2022-10-17T08:47:16.523Z,62.20
2022-10-17T08:49:56.238Z,61.88
2022-10-17T08:52:39.929Z,61.78
2022-10-17T08:55:21.462Z,61.13
2022-10-17T08:57:49.360Z,61.29
2022-10-17T09:00:21.066Z,61.40
2022-10-17T09:03:10.779Z,61.32
2022-10-17T09:05:59.749Z,61.38
2022-10-17T09:08:53.633Z,61.19
2022-10-17T09:11:52.933Z,60.86
2022-10-17T09:14:46.650Z,60.66
2022-10-17T09:17:43.166Z,60.32
2022-10-17T09:20:18.522Z,59.91
2022-10-17T09:23:14.463Z,59.68
2022-10-17T09:25:46.173Z,59.62
2022-10-17T09:28:24.421Z,59.58
2022-10-17T09:31:04.162Z,59.67
2022-10-17T09:33:59.193Z,59.27
2022-10-17T09:36:41.026Z,58.99
2022-10-17T09:39:19.209Z,58.92
2022-10-17T09:41:55.871Z,57.78
2022-10-17T09:44:34.048Z,57.01
2022-10-17T09:47:24.399Z,57.10
2022-10-17T09:49:53.528Z,54.85
2022-10-17T09:52:36.913Z,55.36
2022-10-17T09:55:18.493Z,55.29
2022-10-17T09:58:01.027Z,55.35
2022-10-17T10:00:33.279Z,55.34
2022-10-17T10:03:15.528Z,55.18
2022-10-17T10:06:02.900Z,55.24
2022-10-17T10:08:37.936Z,55.01
2022-10-17T10:11:13.607Z,54.81
2022-10-17T10:13:43.365Z,54.93
2022-10-17T10:16:33.839Z,53.60
2022-10-17T10:19:03.715Z,53.58
2022-10-17T10:21:36.184Z,53.94
2022-10-17T10:24:15.396Z,53.24
2022-10-17T10:26:48.209Z,52.81
2022-10-17T10:29:35.361Z,53.54
2022-10-17T10:32:19.507Z,53.69
2022-10-17T10:34:52.691Z,53.61
2022-10-17T10:37:25.765Z,52.55
2022-10-17T10:39:59.179Z,52.10
2022-10-17T10:42:38.293Z,52.63
2022-10-17T10:45:47.627Z,52.65
2022-10-17T10:48:36.641Z,52.62
2022-10-17T10:51:09.744Z,51.74
2022-10-17T10:54:26.604Z,51.92
2022-10-17T10:57:00.165Z,51.45
2022-10-17T10:59:50.375Z,51.13
2022-10-17T11:02:45.757Z,51.32
2022-10-17T11:05:22.425Z,51.47
2022-10-17T11:08:11.345Z,51.03
2022-10-17T11:11:08.328Z,51.04
2022-10-17T11:13:49.594Z,50.67
2022-10-17T11:17:03.094Z,50.67
2022-10-17T11:20:01.475Z,50.92
2022-10-17T11:22:39.964Z,50.77
2022-10-17T11:25:31.765Z,50.85
2022-10-17T11:28:04.837Z,50.69
2022-10-17T11:30:46.287Z,50.48
2022-10-17T11:33:49.505Z,50.37
2022-10-17T11:36:20.968Z,50.22
2022-10-17T11:38:56.145Z,49.38
2022-10-17T11:41:35.533Z,49.78
2022-10-17T11:44:27.914Z,49.73
2022-10-17T11:47:01.883Z,49.28
2022-10-17T11:49:40.579Z,49.74
2022-10-17T11:55:30.210Z,49.79
2022-10-17T11:58:16.550Z,49.74
2022-10-17T12:01:10.463Z,49.63
2022-10-17T12:03:48.661Z,49.49
2022-10-17T12:06:45.715Z,49.46
2022-10-17T12:09:22.409Z,49.17
2022-10-17T12:11:57.541Z,49.07
2022-10-17T12:14:47.489Z,49.23
2022-10-17T12:17:40.564Z,48.78
2022-10-17T12:20:21.246Z,48.75
2022-10-17T12:23:10.228Z,48.83
2022-10-17T12:25:50.856Z,48.71
2022-10-17T12:28:34.509Z,48.73
2022-10-17T12:31:22.373Z,48.68
2022-10-17T12:33:55.744Z,48.32
2022-10-17T12:36:23.475Z,48.39
2022-10-17T12:39:01.880Z,48.20
2022-10-17T12:41:50.551Z,48.10
2022-10-17T12:44:21.923Z,48.38
2022-10-17T12:46:52.642Z,47.74
2022-10-17T12:49:53.154Z,47.70
2022-10-17T12:52:25.568Z,47.88
2022-10-17T12:55:10.930Z,47.71
2022-10-17T12:57:50.618Z,47.67
2022-10-17T13:01:18.976Z,47.30
2022-10-17T13:03:48.172Z,47.41
2022-10-17T13:06:23.292Z,47.25
2022-10-17T13:09:03.528Z,47.20
2022-10-17T13:11:36.724Z,47.22
2022-10-17T13:14:12.688Z,47.25
2022-10-17T13:16:53.649Z,47.04
2022-10-17T13:19:26.269Z,46.94
2022-10-17T13:21:59.844Z,47.11
2022-10-17T13:24:39.553Z,47.02
2022-10-17T13:27:24.728Z,46.70
2022-10-17T13:29:52.478Z,46.64
2022-10-17T13:32:20.225Z,46.36
2022-10-17T13:35:07.326Z,46.83
2022-10-17T13:37:37.618Z,46.55
2022-10-17T13:40:24.850Z,46.68
2022-10-17T13:42:58.235Z,46.70
2022-10-17T13:45:34.679Z,46.46
2022-10-17T13:48:06.302Z,46.58
2022-10-17T13:50:44.571Z,46.19
2022-10-17T13:53:13.065Z,46.49
2022-10-17T13:56:09.497Z,46.38
2022-10-17T13:58:51.168Z,46.02
2022-10-17T14:01:21.134Z,46.19
2022-10-17T14:04:02.181Z,46.37
2022-10-17T14:06:49.815Z,46.16
2022-10-17T14:09:30.862Z,46.09
2022-10-17T14:12:07.084Z,46.31
2022-10-17T14:14:57.981Z,46.21
2022-10-17T14:17:29.526Z,45.78
2022-10-17T14:20:34.411Z,46.01
2022-10-17T14:23:20.803Z,45.79
2022-10-17T14:25:42.295Z,46.22
2022-10-17T14:28:12.312Z,46.12
2022-10-17T14:30:56.216Z,45.97
2022-10-17T14:33:32.233Z,46.08
2022-10-17T14:36:02.979Z,46.15
2022-10-17T14:38:32.231Z,46.25
2022-10-17T14:44:16.354Z,46.02
2022-10-17T14:46:50.672Z,46.18
2022-10-17T14:49:34.484Z,45.93
2022-10-17T14:52:18.219Z,46.12
2022-10-17T14:54:49.257Z,46.10
2022-10-17T14:57:27.486Z,46.18
2022-10-17T14:59:56.815Z,45.91
2022-10-17T15:02:28.376Z,45.98
2022-10-17T15:04:58.160Z,46.09
2022-10-17T15:07:25.906Z,46.11
2022-10-17T15:09:54.555Z,46.32
2022-10-17T15:12:25.479Z,46.38
2022-10-17T15:14:54.558Z,46.45
2022-10-17T15:17:29.166Z,46.42
2022-10-17T15:19:58.546Z,46.45
2022-10-17T15:22:26.430Z,46.49
2022-10-17T15:24:55.699Z,46.46
2022-10-17T15:27:25.008Z,46.46
2022-10-17T15:29:53.455Z,46.52
2022-10-17T15:32:21.183Z,46.70
2022-10-17T15:34:48.863Z,46.66
2022-10-17T15:37:24.252Z,46.77
2022-10-17T15:39:55.881Z,46.80
2022-10-17T15:42:29.772Z,46.97
2022-10-17T15:44:58.797Z,46.87
2022-10-17T15:47:35.784Z,46.96
2022-10-17T15:50:04.858Z,47.07
2022-10-17T15:52:33.381Z,47.13
2022-10-17T15:55:04.315Z,47.14
2022-10-17T15:57:38.285Z,47.32
2022-10-17T16:00:16.715Z,47.30
2022-10-17T16:02:49.974Z,47.30
2022-10-17T16:05:26.422Z,47.47
2022-10-17T16:07:54.159Z,47.52
2022-10-17T16:10:24.033Z,47.46
2022-10-17T16:12:54.063Z,47.70
2022-10-17T16:15:28.095Z,47.61
2022-10-17T16:18:00.480Z,47.76
2022-10-17T16:20:33.907Z,47.91
2022-10-17T16:23:03.730Z,47.78
2022-10-17T16:25:33.056Z,47.94
2022-10-17T16:28:01.970Z,47.92
2022-10-17T16:30:32.448Z,48.03
2022-10-17T16:33:00.157Z,48.19
2022-10-17T16:35:34.734Z,48.23
2022-10-17T16:38:08.206Z,48.50
2022-10-17T16:40:40.348Z,48.61
2022-10-17T16:43:14.646Z,48.64
2022-10-17T16:45:42.736Z,48.69
2022-10-17T16:48:11.497Z,48.78
2022-10-17T16:50:40.758Z,48.84
2022-10-17T16:53:08.494Z,48.95
2022-10-17T16:55:38.743Z,48.74
2022-10-17T16:58:06.536Z,49.00
2022-10-17T17:00:34.264Z,49.35
2022-10-17T17:03:01.953Z,49.23
2022-10-17T17:05:29.702Z,49.25
2022-10-17T17:07:57.536Z,49.29
2022-10-17T17:10:27.779Z,49.57
2022-10-17T17:12:56.921Z,49.56
2022-10-17T17:15:24.657Z,50.12
2022-10-17T17:17:55.529Z,49.63
2022-10-17T17:20:24.296Z,49.99
2022-10-17T17:22:52.553Z,49.91
2022-10-17T17:25:22.901Z,50.14
2022-10-17T17:27:50.743Z,49.98
2022-10-17T17:30:18.589Z,50.26
2022-10-17T17:32:46.281Z,50.62
2022-10-17T17:35:14.808Z,50.44
2022-10-17T17:37:42.616Z,50.50
2022-10-17T17:40:12.031Z,50.79
2022-10-17T17:42:41.215Z,50.82
2022-10-17T17:45:11.968Z,51.03
2022-10-17T17:47:40.024Z,51.32
2022-10-17T17:50:08.473Z,51.20
2022-10-17T17:52:42.724Z,51.51
2022-10-17T17:55:10.418Z,51.68
2022-10-17T17:57:39.192Z,51.56
2022-10-17T18:00:07.625Z,51.66
2022-10-17T18:02:37.657Z,52.08
2022-10-17T18:05:07.986Z,51.94
2022-10-17T18:07:37.778Z,51.85
2022-10-17T18:10:08.989Z,52.40
2022-10-17T18:12:36.805Z,52.60
2022-10-17T18:15:07.710Z,52.66
2022-10-17T18:17:35.492Z,52.71
2022-10-17T18:20:05.627Z,52.84
2022-10-17T18:22:35.863Z,52.93
2022-10-17T18:25:03.710Z,53.22
2022-10-17T18:27:31.379Z,53.28
2022-10-17T18:29:59.028Z,53.26
2022-10-17T18:32:30.426Z,53.52
2022-10-17T18:34:58.758Z,53.46
2022-10-17T18:37:26.588Z,53.75
2022-10-17T18:39:56.311Z,53.54
2022-10-17T18:42:24.035Z,53.59
2022-10-17T18:44:51.840Z,53.62
2022-10-17T18:47:20.190Z,53.63
2022-10-17T18:49:48.866Z,53.65
2022-10-17T18:52:16.525Z,53.90
2022-10-17T18:54:44.182Z,54.02
2022-10-17T18:57:13.131Z,53.96
2022-10-17T18:59:41.895Z,54.14
2022-10-17T19:02:13.202Z,54.15
2022-10-17T19:04:41.087Z,54.11
2022-10-17T19:07:08.838Z,54.23
2022-10-17T19:09:37.399Z,54.37
2022-10-17T19:12:05.325Z,54.39
2022-10-17T19:14:33.413Z,54.39
2022-10-17T19:17:01.881Z,54.49
2022-10-17T19:19:31.311Z,54.40
2022-10-17T19:22:01.780Z,54.58
2022-10-17T19:24:30.382Z,54.63
2022-10-17T19:27:03.940Z,54.56
2022-10-17T19:29:32.174Z,54.78
2022-10-17T19:32:01.007Z,54.77
2022-10-17T19:34:28.943Z,54.86
2022-10-17T19:36:59.557Z,54.84
2022-10-17T19:39:27.391Z,54.92
2022-10-17T19:41:57.376Z,55.03
2022-10-17T19:44:25.308Z,54.94
2022-10-17T19:46:53.016Z,55.02
2022-10-17T19:49:21.212Z,55.03
2022-10-17T19:51:49.106Z,55.05
2022-10-17T19:54:20.342Z,54.86
2022-10-17T19:56:48.083Z,55.06
2022-10-17T19:59:17.371Z,55.68
2022-10-17T20:01:46.945Z,55.15
2022-10-17T20:04:15.681Z,55.55
2022-10-17T20:06:43.438Z,55.45
2022-10-17T20:09:16.619Z,55.66
2022-10-17T20:11:49.538Z,55.94
2022-10-17T20:14:18.236Z,55.97
2022-10-17T20:16:50.356Z,56.11
2022-10-17T20:19:18.648Z,56.00
2022-10-17T20:21:46.478Z,56.48
2022-10-17T20:24:18.174Z,56.15
2022-10-17T20:26:46.079Z,56.47
2022-10-17T20:29:20.518Z,56.60
2022-10-17T20:31:49.034Z,56.34
2022-10-17T20:34:19.667Z,56.41
2022-10-17T20:36:49.566Z,56.48
2022-10-17T20:39:20.437Z,56.61
2022-10-17T20:41:48.587Z,56.91
2022-10-17T20:44:16.310Z,56.65
2022-10-17T20:46:57.620Z,56.92
2022-10-17T20:49:32.698Z,56.85
2022-10-17T20:52:02.307Z,56.75
2022-10-17T20:54:30.357Z,56.70
2022-10-17T20:57:03.876Z,56.71
2022-10-17T20:59:36.172Z,56.75
2022-10-17T21:02:06.586Z,56.77
2022-10-17T21:04:51.996Z,56.70
2022-10-17T21:07:22.610Z,57.09
2022-10-17T21:09:50.293Z,57.28
2022-10-17T21:12:26.047Z,56.94
2022-10-17T21:15:05.051Z,56.98
2022-10-17T21:17:34.674Z,57.00
2022-10-17T21:20:02.379Z,57.13
2022-10-17T21:22:30.261Z,57.15
2022-10-17T21:24:58.527Z,57.10
2022-10-17T21:27:26.248Z,57.07
2022-10-17T21:29:54.107Z,57.04
2022-10-17T21:32:39.455Z,57.61
2022-10-17T21:35:13.028Z,57.36
2022-10-17T21:37:40.694Z,57.33
2022-10-17T21:40:10.777Z,57.32
2022-10-17T21:42:38.518Z,57.38
2022-10-17T21:45:15.173Z,57.39
2022-10-17T21:48:11.307Z,57.62
2022-10-17T21:50:32.902Z,57.86
2022-10-17T21:53:00.598Z,57.91
2022-10-17T21:55:28.421Z,57.68
2022-10-17T21:57:56.189Z,57.73
2022-10-17T22:00:23.827Z,57.80
2022-10-17T22:02:51.467Z,57.68
2022-10-17T22:05:19.111Z,57.85
2022-10-17T22:07:49.174Z,57.69
2022-10-17T22:10:17.004Z,58.06
2022-10-17T22:12:44.644Z,57.88
2022-10-17T22:15:12.254Z,57.90
2022-10-17T22:17:39.917Z,58.05
2022-10-17T22:20:08.031Z,57.96
2022-10-17T22:22:35.747Z,58.01
2022-10-17T22:25:03.561Z,57.98
2022-10-17T22:27:33.275Z,58.12
2022-10-17T22:30:01.217Z,58.09
2022-10-17T22:32:29.008Z,58.01
2022-10-17T22:34:56.692Z,58.19
2022-10-17T22:37:24.398Z,58.17
2022-10-17T22:39:52.072Z,58.19
2022-10-17T22:42:19.700Z,58.20
2022-10-17T22:44:49.160Z,58.31
2022-10-17T22:47:16.887Z,58.40
2022-10-17T22:49:44.553Z,58.26
2022-10-17T22:52:12.252Z,58.41
2022-10-17T22:54:41.875Z,58.41
2022-10-17T22:57:09.523Z,58.53
2022-10-17T22:59:37.114Z,58.58
2022-10-17T23:02:04.898Z,58.56
2022-10-17T23:04:34.538Z,58.60
2022-10-17T23:07:02.275Z,58.59
2022-10-17T23:09:29.916Z,58.64
2022-10-17T23:11:57.561Z,58.57
2022-10-17T23:14:25.188Z,58.56
2022-10-17T23:16:52.815Z,58.59
2022-10-17T23:19:20.480Z,58.78
2022-10-17T23:21:48.135Z,58.76
2022-10-17T23:24:16.108Z,58.66
2022-10-17T23:26:43.789Z,58.82
2022-10-17T23:29:11.566Z,58.75
2022-10-17T23:31:40.811Z,58.67
2022-10-17T23:34:08.573Z,58.78
2022-10-17T23:36:36.213Z,58.83
2022-10-17T23:39:07.191Z,59.03
2022-10-17T23:41:34.843Z,58.86
2022-10-17T23:44:04.741Z,58.91
2022-10-17T23:46:32.861Z,58.98
2022-10-17T23:49:02.414Z,58.93
2022-10-17T23:51:30.225Z,58.97
2022-10-17T23:53:59.834Z,58.98
2022-10-17T23:56:28.013Z,59.05
2022-10-17T23:58:55.666Z,58.98
